sensor_id;sensor_type;location;lat;lon;timestamp;P1;durP1;ratioP1;P2;durP2;ratioP2
43819;SDS011;67762;52.476;6.046;2023-04-03T00:02:07;1999.90;;;999.90;;
43819;SDS011;67762;52.476;6.046;2023-04-03T00:04:35;1999.90;;;999.90;;
43819;SDS011;67762;52.476;6.046;2023-04-03T00:07:01;1999.90;;;999.90;;
43819;SDS011;67762;52.476;6.046;2023-04-03T00:09:26;1999.90;;;999.90;;
43819;SDS011;67762;52.476;6.046;2023-04-03T00:11:52;1999.90;;;999.90;;
43819;SDS011;67762;52.476;6.046;2023-04-03T00:14:17;1999.90;;;999.90;;
43819;SDS011;67762;52.476;6.046;2023-04-03T00:16:43;1999.90;;;999.90;;
43819;SDS011;67762;52.476;6.046;2023-04-03T00:19:09;1999.90;;;999.90;;
43819;SDS011;67762;52.476;6.046;2023-04-03T00:21:37;1999.90;;;999.90;;
43819;SDS011;67762;52.476;6.046;2023-04-03T00:24:03;1999.90;;;999.90;;
43819;SDS011;67762;52.476;6.046;2023-04-03T00:26:28;1999.90;;;999.90;;
43819;SDS011;67762;52.476;6.046;2023-04-03T00:28:54;1999.90;;;999.90;;
43819;SDS011;67762;52.476;6.046;2023-04-03T00:31:20;1999.90;;;999.90;;
43819;SDS011;67762;52.476;6.046;2023-04-03T00:33:45;1999.90;;;999.90;;
43819;SDS011;67762;52.476;6.046;2023-04-03T00:36:11;1999.90;;;999.90;;
43819;SDS011;67762;52.476;6.046;2023-04-03T00:38:37;1999.90;;;999.90;;
43819;SDS011;67762;52.476;6.046;2023-04-03T00:41:03;1999.90;;;999.90;;
43819;SDS011;67762;52.476;6.046;2023-04-03T00:43:29;1999.90;;;999.90;;
43819;SDS011;67762;52.476;6.046;2023-04-03T00:45:56;1999.90;;;999.90;;
43819;SDS011;67762;52.476;6.046;2023-04-03T00:48:24;1999.90;;;999.90;;
43819;SDS011;67762;52.476;6.046;2023-04-03T00:50:53;1999.90;;;999.90;;
43819;SDS011;67762;52.476;6.046;2023-04-03T00:53:24;1999.90;;;999.90;;
43819;SDS011;67762;52.476;6.046;2023-04-03T00:55:52;1999.90;;;999.90;;
43819;SDS011;67762;52.476;6.046;2023-04-03T00:58:21;1999.90;;;999.90;;
43819;SDS011;67762;52.476;6.046;2023-04-03T01:00:54;1999.90;;;999.90;;
43819;SDS011;67762;52.476;6.046;2023-04-03T01:03:23;1999.90;;;999.90;;
43819;SDS011;67762;52.476;6.046;2023-04-03T01:05:50;1999.90;;;999.90;;
43819;SDS011;67762;52.476;6.046;2023-04-03T01:08:16;1999.90;;;999.90;;
43819;SDS011;67762;52.476;6.046;2023-04-03T01:10:41;1999.90;;;999.90;;
43819;SDS011;67762;52.476;6.046;2023-04-03T01:13:18;1999.90;;;999.90;;
43819;SDS011;67762;52.476;6.046;2023-04-03T01:15:47;1999.90;;;999.90;;
43819;SDS011;67762;52.476;6.046;2023-04-03T01:18:13;1999.90;;;999.90;;
43819;SDS011;67762;52.476;6.046;2023-04-03T01:26:18;1999.90;;;999.90;;
43819;SDS011;67762;52.476;6.046;2023-04-03T01:28:45;1999.90;;;999.90;;
43819;SDS011;67762;52.476;6.046;2023-04-03T01:31:13;1999.90;;;999.90;;
43819;SDS011;67762;52.476;6.046;2023-04-03T01:33:46;1999.90;;;999.90;;
43819;SDS011;67762;52.476;6.046;2023-04-03T01:36:20;1999.90;;;999.90;;
43819;SDS011;67762;52.476;6.046;2023-04-03T01:38:48;1999.90;;;999.90;;
43819;SDS011;67762;52.476;6.046;2023-04-03T01:41:14;1999.90;;;999.90;;
43819;SDS011;67762;52.476;6.046;2023-04-03T01:43:42;1999.90;;;999.90;;
43819;SDS011;67762;52.476;6.046;2023-04-03T01:46:08;1999.90;;;999.90;;
43819;SDS011;67762;52.476;6.046;2023-04-03T01:48:33;1999.90;;;999.90;;
43819;SDS011;67762;52.476;6.046;2023-04-03T01:51:00;1999.90;;;999.90;;
43819;SDS011;67762;52.476;6.046;2023-04-03T01:53:26;1999.90;;;999.90;;
43819;SDS011;67762;52.476;6.046;2023-04-03T01:55:52;1999.90;;;999.90;;
43819;SDS011;67762;52.476;6.046;2023-04-03T01:58:18;1999.90;;;999.90;;
43819;SDS011;67762;52.476;6.046;2023-04-03T02:00:43;1999.90;;;999.90;;
43819;SDS011;67762;52.476;6.046;2023-04-03T02:03:09;1999.90;;;999.90;;
43819;SDS011;67762;52.476;6.046;2023-04-03T02:05:35;1999.90;;;999.90;;
43819;SDS011;67762;52.476;6.046;2023-04-03T02:08:01;1999.90;;;999.90;;
43819;SDS011;67762;52.476;6.046;2023-04-03T02:10:27;1999.90;;;999.90;;
43819;SDS011;67762;52.476;6.046;2023-04-03T02:12:53;1999.90;;;999.90;;
43819;SDS011;67762;52.476;6.046;2023-04-03T02:15:18;1999.90;;;999.90;;
43819;SDS011;67762;52.476;6.046;2023-04-03T02:17:44;1999.90;;;999.90;;
43819;SDS011;67762;52.476;6.046;2023-04-03T02:20:10;1999.90;;;999.90;;
43819;SDS011;67762;52.476;6.046;2023-04-03T02:22:36;1999.90;;;999.90;;
43819;SDS011;67762;52.476;6.046;2023-04-03T02:25:02;1999.90;;;999.90;;
43819;SDS011;67762;52.476;6.046;2023-04-03T02:27:28;1999.90;;;999.90;;
43819;SDS011;67762;52.476;6.046;2023-04-03T02:29:53;1999.90;;;999.90;;
43819;SDS011;67762;52.476;6.046;2023-04-03T02:32:19;1999.90;;;999.90;;
43819;SDS011;67762;52.476;6.046;2023-04-03T02:34:45;1999.90;;;999.90;;
43819;SDS011;67762;52.476;6.046;2023-04-03T02:37:12;1999.90;;;999.90;;
43819;SDS011;67762;52.476;6.046;2023-04-03T02:39:38;1999.90;;;999.90;;
43819;SDS011;67762;52.476;6.046;2023-04-03T02:42:04;1999.90;;;999.90;;
43819;SDS011;67762;52.476;6.046;2023-04-03T02:44:30;1999.90;;;999.90;;
43819;SDS011;67762;52.476;6.046;2023-04-03T02:46:56;1999.90;;;999.90;;
43819;SDS011;67762;52.476;6.046;2023-04-03T02:49:22;1999.90;;;999.90;;
43819;SDS011;67762;52.476;6.046;2023-04-03T02:51:48;1999.90;;;999.90;;
43819;SDS011;67762;52.476;6.046;2023-04-03T02:54:13;1999.90;;;999.90;;
43819;SDS011;67762;52.476;6.046;2023-04-03T02:56:43;1999.90;;;999.90;;
43819;SDS011;67762;52.476;6.046;2023-04-03T02:59:09;1999.90;;;999.90;;
43819;SDS011;67762;52.476;6.046;2023-04-03T03:01:36;1999.90;;;999.90;;
43819;SDS011;67762;52.476;6.046;2023-04-03T03:04:02;1999.90;;;999.90;;
43819;SDS011;67762;52.476;6.046;2023-04-03T03:06:28;1999.90;;;999.90;;
43819;SDS011;67762;52.476;6.046;2023-04-03T03:08:54;1999.90;;;999.90;;
43819;SDS011;67762;52.476;6.046;2023-04-03T03:11:19;1999.90;;;999.90;;
43819;SDS011;67762;52.476;6.046;2023-04-03T03:13:46;1999.90;;;999.90;;
43819;SDS011;67762;52.476;6.046;2023-04-03T03:16:11;1999.90;;;999.90;;
43819;SDS011;67762;52.476;6.046;2023-04-03T03:18:37;1999.90;;;999.90;;
43819;SDS011;67762;52.476;6.046;2023-04-03T03:21:03;1999.90;;;999.90;;
43819;SDS011;67762;52.476;6.046;2023-04-03T03:23:30;1999.90;;;999.90;;
43819;SDS011;67762;52.476;6.046;2023-04-03T03:26:07;1999.90;;;999.90;;
43819;SDS011;67762;52.476;6.046;2023-04-03T03:28:35;1999.90;;;999.90;;
43819;SDS011;67762;52.476;6.046;2023-04-03T03:31:03;1999.90;;;999.90;;
43819;SDS011;67762;52.476;6.046;2023-04-03T03:33:31;1999.90;;;999.90;;
43819;SDS011;67762;52.476;6.046;2023-04-03T03:35:56;1999.90;;;999.90;;
43819;SDS011;67762;52.476;6.046;2023-04-03T03:38:22;1999.90;;;999.90;;
43819;SDS011;67762;52.476;6.046;2023-04-03T03:40:49;1999.90;;;999.90;;
43819;SDS011;67762;52.476;6.046;2023-04-03T03:43:17;1999.90;;;999.90;;
43819;SDS011;67762;52.476;6.046;2023-04-03T03:45:46;1999.90;;;999.90;;
43819;SDS011;67762;52.476;6.046;2023-04-03T03:48:15;1999.90;;;999.90;;
43819;SDS011;67762;52.476;6.046;2023-04-03T03:50:41;1999.90;;;999.90;;
43819;SDS011;67762;52.476;6.046;2023-04-03T03:53:06;1999.90;;;999.90;;
43819;SDS011;67762;52.476;6.046;2023-04-03T03:55:32;1999.90;;;999.90;;
43819;SDS011;67762;52.476;6.046;2023-04-03T03:57:58;1999.90;;;999.90;;
43819;SDS011;67762;52.476;6.046;2023-04-03T04:00:24;1999.90;;;999.90;;
43819;SDS011;67762;52.476;6.046;2023-04-03T04:02:54;1999.90;;;999.90;;
43819;SDS011;67762;52.476;6.046;2023-04-03T04:05:22;1999.90;;;999.90;;
43819;SDS011;67762;52.476;6.046;2023-04-03T04:07:47;1999.90;;;999.90;;
43819;SDS011;67762;52.476;6.046;2023-04-03T04:10:14;1999.90;;;999.90;;
43819;SDS011;67762;52.476;6.046;2023-04-03T04:12:41;1999.90;;;999.90;;
43819;SDS011;67762;52.476;6.046;2023-04-03T04:15:07;1999.90;;;999.90;;
43819;SDS011;67762;52.476;6.046;2023-04-03T04:17:33;1999.90;;;999.90;;
43819;SDS011;67762;52.476;6.046;2023-04-03T04:20:01;1999.90;;;999.90;;
43819;SDS011;67762;52.476;6.046;2023-04-03T04:22:28;1999.90;;;999.90;;
43819;SDS011;67762;52.476;6.046;2023-04-03T04:24:54;1999.90;;;999.90;;
43819;SDS011;67762;52.476;6.046;2023-04-03T04:27:20;1999.90;;;999.90;;
43819;SDS011;67762;52.476;6.046;2023-04-03T04:29:45;1999.90;;;999.90;;
43819;SDS011;67762;52.476;6.046;2023-04-03T04:32:11;1999.90;;;999.90;;
43819;SDS011;67762;52.476;6.046;2023-04-03T04:34:37;1999.90;;;999.90;;
43819;SDS011;67762;52.476;6.046;2023-04-03T04:37:03;1999.90;;;999.90;;
43819;SDS011;67762;52.476;6.046;2023-04-03T04:39:29;1999.90;;;999.90;;
43819;SDS011;67762;52.476;6.046;2023-04-03T04:41:56;1999.90;;;999.90;;
43819;SDS011;67762;52.476;6.046;2023-04-03T04:44:24;1999.90;;;999.90;;
43819;SDS011;67762;52.476;6.046;2023-04-03T04:46:50;1999.90;;;999.90;;
43819;SDS011;67762;52.476;6.046;2023-04-03T04:49:16;1999.90;;;999.90;;
43819;SDS011;67762;52.476;6.046;2023-04-03T04:51:41;1999.90;;;999.90;;
43819;SDS011;67762;52.476;6.046;2023-04-03T04:54:08;1999.90;;;999.90;;
43819;SDS011;67762;52.476;6.046;2023-04-03T04:56:35;1999.90;;;999.90;;
43819;SDS011;67762;52.476;6.046;2023-04-03T04:59:01;1999.90;;;999.90;;
43819;SDS011;67762;52.476;6.046;2023-04-03T05:01:27;1999.90;;;999.90;;
43819;SDS011;67762;52.476;6.046;2023-04-03T05:04:05;1999.90;;;999.90;;
43819;SDS011;67762;52.476;6.046;2023-04-03T05:06:31;1999.90;;;999.90;;
43819;SDS011;67762;52.476;6.046;2023-04-03T05:08:58;1999.90;;;999.90;;
43819;SDS011;67762;52.476;6.046;2023-04-03T05:11:25;1999.90;;;999.90;;
43819;SDS011;67762;52.476;6.046;2023-04-03T05:13:51;1999.90;;;999.90;;
43819;SDS011;67762;52.476;6.046;2023-04-03T05:16:17;1999.90;;;999.90;;
43819;SDS011;67762;52.476;6.046;2023-04-03T05:18:43;1999.90;;;999.90;;
43819;SDS011;67762;52.476;6.046;2023-04-03T05:21:15;1999.90;;;999.90;;
43819;SDS011;67762;52.476;6.046;2023-04-03T05:23:43;1999.90;;;999.90;;
43819;SDS011;67762;52.476;6.046;2023-04-03T05:26:09;1999.90;;;999.90;;
43819;SDS011;67762;52.476;6.046;2023-04-03T05:28:35;1999.90;;;999.90;;
43819;SDS011;67762;52.476;6.046;2023-04-03T05:31:02;1999.90;;;999.90;;
43819;SDS011;67762;52.476;6.046;2023-04-03T05:33:33;1999.90;;;999.90;;
43819;SDS011;67762;52.476;6.046;2023-04-03T05:36:05;1999.90;;;999.90;;
43819;SDS011;67762;52.476;6.046;2023-04-03T05:38:35;1999.90;;;999.90;;
43819;SDS011;67762;52.476;6.046;2023-04-03T05:41:01;1999.90;;;999.90;;
43819;SDS011;67762;52.476;6.046;2023-04-03T05:43:27;1999.90;;;999.90;;
43819;SDS011;67762;52.476;6.046;2023-04-03T05:45:53;1999.90;;;999.90;;
43819;SDS011;67762;52.476;6.046;2023-04-03T05:48:20;1999.90;;;999.90;;
43819;SDS011;67762;52.476;6.046;2023-04-03T05:50:46;1999.90;;;999.90;;
43819;SDS011;67762;52.476;6.046;2023-04-03T05:53:22;1999.90;;;999.90;;
43819;SDS011;67762;52.476;6.046;2023-04-03T05:55:53;1999.90;;;999.90;;
43819;SDS011;67762;52.476;6.046;2023-04-03T05:58:20;1999.90;;;999.90;;
43819;SDS011;67762;52.476;6.046;2023-04-03T06:00:47;1999.90;;;999.90;;
43819;SDS011;67762;52.476;6.046;2023-04-03T06:03:13;1999.90;;;999.90;;
43819;SDS011;67762;52.476;6.046;2023-04-03T06:05:39;1999.90;;;999.90;;
43819;SDS011;67762;52.476;6.046;2023-04-03T06:08:05;1511.95;;;761.20;;
43819;SDS011;67762;52.476;6.046;2023-04-03T06:10:31;1999.90;;;999.90;;
43819;SDS011;67762;52.476;6.046;2023-04-03T06:12:57;1999.90;;;999.90;;
43819;SDS011;67762;52.476;6.046;2023-04-03T06:15:23;1999.90;;;999.90;;
43819;SDS011;67762;52.476;6.046;2023-04-03T06:17:49;1999.90;;;999.90;;
43819;SDS011;67762;52.476;6.046;2023-04-03T06:20:15;64.47;;;60.88;;
43819;SDS011;67762;52.476;6.046;2023-04-03T06:22:41;47.38;;;44.47;;
43819;SDS011;67762;52.476;6.046;2023-04-03T06:25:07;58.80;;;55.60;;
43819;SDS011;67762;52.476;6.046;2023-04-03T06:27:34;1999.90;;;999.90;;
43819;SDS011;67762;52.476;6.046;2023-04-03T06:30:00;1999.90;;;999.90;;
43819;SDS011;67762;52.476;6.046;2023-04-03T06:32:26;1999.90;;;999.90;;
43819;SDS011;67762;52.476;6.046;2023-04-03T06:34:52;1999.90;;;999.90;;
43819;SDS011;67762;52.476;6.046;2023-04-03T06:37:20;1999.90;;;999.90;;
43819;SDS011;67762;52.476;6.046;2023-04-03T06:39:47;1999.90;;;999.90;;
43819;SDS011;67762;52.476;6.046;2023-04-03T06:42:13;1999.90;;;999.90;;
43819;SDS011;67762;52.476;6.046;2023-04-03T06:44:47;1999.90;;;999.90;;
43819;SDS011;67762;52.476;6.046;2023-04-03T06:47:14;1999.90;;;999.90;;
43819;SDS011;67762;52.476;6.046;2023-04-03T06:49:40;1999.90;;;999.90;;
43819;SDS011;67762;52.476;6.046;2023-04-03T06:52:06;1999.90;;;999.90;;
43819;SDS011;67762;52.476;6.046;2023-04-03T06:54:33;1999.90;;;999.90;;
43819;SDS011;67762;52.476;6.046;2023-04-03T06:56:58;1999.90;;;999.90;;
43819;SDS011;67762;52.476;6.046;2023-04-03T06:59:25;1999.90;;;999.90;;
43819;SDS011;67762;52.476;6.046;2023-04-03T07:01:52;1999.90;;;999.90;;
43819;SDS011;67762;52.476;6.046;2023-04-03T07:04:17;1999.90;;;999.90;;
43819;SDS011;67762;52.476;6.046;2023-04-03T07:06:45;1999.90;;;999.90;;
43819;SDS011;67762;52.476;6.046;2023-04-03T07:09:12;1999.90;;;999.90;;
43819;SDS011;67762;52.476;6.046;2023-04-03T07:11:38;1999.90;;;999.90;;
43819;SDS011;67762;52.476;6.046;2023-04-03T07:14:04;1999.90;;;999.90;;
43819;SDS011;67762;52.476;6.046;2023-04-03T07:16:31;31.23;;;29.65;;
43819;SDS011;67762;52.476;6.046;2023-04-03T07:18:57;41.67;;;39.30;;
43819;SDS011;67762;52.476;6.046;2023-04-03T07:21:23;33.58;;;31.70;;
43819;SDS011;67762;52.476;6.046;2023-04-03T07:23:49;59.05;;;55.75;;
43819;SDS011;67762;52.476;6.046;2023-04-03T07:26:15;42.97;;;40.70;;
43819;SDS011;67762;52.476;6.046;2023-04-03T07:28:41;71.57;;;67.60;;
43819;SDS011;67762;52.476;6.046;2023-04-03T07:31:07;48.90;;;46.22;;
43819;SDS011;67762;52.476;6.046;2023-04-03T07:33:38;56.10;;;52.60;;
43819;SDS011;67762;52.476;6.046;2023-04-03T07:36:06;46.97;;;44.08;;
43819;SDS011;67762;52.476;6.046;2023-04-03T07:38:33;41.95;;;39.55;;
43819;SDS011;67762;52.476;6.046;2023-04-03T07:40:59;77.45;;;73.25;;
43819;SDS011;67762;52.476;6.046;2023-04-03T07:43:26;50.85;;;48.15;;
43819;SDS011;67762;52.476;6.046;2023-04-03T07:45:52;34.47;;;32.38;;
43819;SDS011;67762;52.476;6.046;2023-04-03T07:48:23;32.88;;;30.48;;
43819;SDS011;67762;52.476;6.046;2023-04-03T07:50:50;35.17;;;33.22;;
43819;SDS011;67762;52.476;6.046;2023-04-03T07:53:15;34.42;;;32.38;;
43819;SDS011;67762;52.476;6.046;2023-04-03T07:55:41;30.75;;;28.85;;
43819;SDS011;67762;52.476;6.046;2023-04-03T07:58:11;32.03;;;30.10;;
43819;SDS011;67762;52.476;6.046;2023-04-03T08:00:38;32.70;;;30.85;;
43819;SDS011;67762;52.476;6.046;2023-04-03T08:03:04;27.67;;;26.17;;
43819;SDS011;67762;52.476;6.046;2023-04-03T08:05:31;27.55;;;25.75;;
43819;SDS011;67762;52.476;6.046;2023-04-03T08:07:57;30.67;;;28.88;;
43819;SDS011;67762;52.476;6.046;2023-04-03T08:10:22;25.73;;;24.23;;
43819;SDS011;67762;52.476;6.046;2023-04-03T08:12:48;26.10;;;24.50;;
43819;SDS011;67762;52.476;6.046;2023-04-03T08:15:14;27.50;;;25.90;;
43819;SDS011;67762;52.476;6.046;2023-04-03T08:17:39;31.75;;;29.90;;
43819;SDS011;67762;52.476;6.046;2023-04-03T08:20:06;24.98;;;23.42;;
43819;SDS011;67762;52.476;6.046;2023-04-03T08:22:33;24.33;;;22.80;;
43819;SDS011;67762;52.476;6.046;2023-04-03T08:24:59;22.95;;;21.48;;
43819;SDS011;67762;52.476;6.046;2023-04-03T08:27:26;22.17;;;20.75;;
43819;SDS011;67762;52.476;6.046;2023-04-03T08:29:52;25.30;;;23.35;;
43819;SDS011;67762;52.476;6.046;2023-04-03T08:32:18;31.58;;;29.73;;
43819;SDS011;67762;52.476;6.046;2023-04-03T08:34:44;23.83;;;22.38;;
43819;SDS011;67762;52.476;6.046;2023-04-03T08:37:09;23.85;;;22.35;;
43819;SDS011;67762;52.476;6.046;2023-04-03T08:39:36;22.33;;;21.02;;
43819;SDS011;67762;52.476;6.046;2023-04-03T08:42:02;26.42;;;24.98;;
43819;SDS011;67762;52.476;6.046;2023-04-03T08:44:44;22.58;;;21.15;;
43819;SDS011;67762;52.476;6.046;2023-04-03T08:49:49;21.52;;;20.23;;
43819;SDS011;67762;52.476;6.046;2023-04-03T08:52:19;21.50;;;20.20;;
43819;SDS011;67762;52.476;6.046;2023-04-03T08:54:53;20.80;;;19.60;;
43819;SDS011;67762;52.476;6.046;2023-04-03T08:57:31;21.13;;;19.83;;
43819;SDS011;67762;52.476;6.046;2023-04-03T09:00:17;22.13;;;20.67;;
43819;SDS011;67762;52.476;6.046;2023-04-03T09:02:46;23.33;;;21.80;;
43819;SDS011;67762;52.476;6.046;2023-04-03T09:05:20;19.90;;;18.58;;
43819;SDS011;67762;52.476;6.046;2023-04-03T09:07:59;20.40;;;18.92;;
43819;SDS011;67762;52.476;6.046;2023-04-03T09:10:30;21.05;;;19.67;;
43819;SDS011;67762;52.476;6.046;2023-04-03T09:13:05;22.08;;;20.88;;
43819;SDS011;67762;52.476;6.046;2023-04-03T09:15:38;18.30;;;17.30;;
43819;SDS011;67762;52.476;6.046;2023-04-03T09:23:58;28.83;;;27.08;;
43819;SDS011;67762;52.476;6.046;2023-04-03T09:26:45;19.23;;;17.95;;
43819;SDS011;67762;52.476;6.046;2023-04-03T09:29:33;17.85;;;16.85;;
43819;SDS011;67762;52.476;6.046;2023-04-03T09:32:12;18.35;;;17.05;;
43819;SDS011;67762;52.476;6.046;2023-04-03T09:34:46;17.67;;;16.58;;
43819;SDS011;67762;52.476;6.046;2023-04-03T09:37:32;17.48;;;16.42;;
43819;SDS011;67762;52.476;6.046;2023-04-03T09:42:51;17.17;;;16.08;;
43819;SDS011;67762;52.476;6.046;2023-04-03T09:45:22;15.57;;;14.68;;
43819;SDS011;67762;52.476;6.046;2023-04-03T09:48:03;16.38;;;15.27;;
43819;SDS011;67762;52.476;6.046;2023-04-03T09:50:30;15.90;;;15.00;;
43819;SDS011;67762;52.476;6.046;2023-04-03T09:52:55;15.93;;;15.02;;
43819;SDS011;67762;52.476;6.046;2023-04-03T09:57:58;15.38;;;14.48;;
43819;SDS011;67762;52.476;6.046;2023-04-03T10:00:34;15.82;;;14.80;;
43819;SDS011;67762;52.476;6.046;2023-04-03T10:03:01;17.13;;;15.77;;
43819;SDS011;67762;52.476;6.046;2023-04-03T10:05:30;16.35;;;15.27;;
43819;SDS011;67762;52.476;6.046;2023-04-03T10:13:11;16.77;;;15.50;;
43819;SDS011;67762;52.476;6.046;2023-04-03T10:15:41;15.48;;;14.50;;
43819;SDS011;67762;52.476;6.046;2023-04-03T10:18:26;15.88;;;14.88;;
43819;SDS011;67762;52.476;6.046;2023-04-03T10:21:15;13.97;;;13.07;;
43819;SDS011;67762;52.476;6.046;2023-04-03T10:24:18;15.45;;;14.45;;
43819;SDS011;67762;52.476;6.046;2023-04-03T10:29:27;15.38;;;14.45;;
43819;SDS011;67762;52.476;6.046;2023-04-03T10:35:10;17.60;;;16.60;;
43819;SDS011;67762;52.476;6.046;2023-04-03T10:37:52;17.98;;;16.98;;
43819;SDS011;67762;52.476;6.046;2023-04-03T10:40:55;15.88;;;14.98;;
43819;SDS011;67762;52.476;6.046;2023-04-03T10:43:45;15.40;;;14.50;;
43819;SDS011;67762;52.476;6.046;2023-04-03T10:55:02;15.45;;;14.55;;
43819;SDS011;67762;52.476;6.046;2023-04-03T10:57:50;15.15;;;14.25;;
43819;SDS011;67762;52.476;6.046;2023-04-03T11:00:21;14.57;;;13.77;;
43819;SDS011;67762;52.476;6.046;2023-04-03T11:03:15;14.13;;;13.32;;
43819;SDS011;67762;52.476;6.046;2023-04-03T11:05:52;13.63;;;12.85;;
43819;SDS011;67762;52.476;6.046;2023-04-03T11:11:00;15.15;;;14.23;;
43819;SDS011;67762;52.476;6.046;2023-04-03T11:16:04;17.13;;;15.90;;
43819;SDS011;67762;52.476;6.046;2023-04-03T11:18:39;15.45;;;14.48;;
43819;SDS011;67762;52.476;6.046;2023-04-03T11:21:11;15.07;;;14.10;;
43819;SDS011;67762;52.476;6.046;2023-04-03T11:23:44;16.00;;;15.00;;
43819;SDS011;67762;52.476;6.046;2023-04-03T11:26:15;16.38;;;15.40;;
43819;SDS011;67762;52.476;6.046;2023-04-03T11:29:06;16.08;;;15.07;;
43819;SDS011;67762;52.476;6.046;2023-04-03T11:31:47;17.10;;;15.90;;
43819;SDS011;67762;52.476;6.046;2023-04-03T11:34:44;15.40;;;14.40;;
43819;SDS011;67762;52.476;6.046;2023-04-03T11:37:14;16.80;;;15.80;;
43819;SDS011;67762;52.476;6.046;2023-04-03T11:39:50;16.40;;;15.40;;
43819;SDS011;67762;52.476;6.046;2023-04-03T11:42:25;16.00;;;14.93;;
43819;SDS011;67762;52.476;6.046;2023-04-03T11:45:17;13.90;;;13.10;;
43819;SDS011;67762;52.476;6.046;2023-04-03T11:50:48;15.48;;;14.57;;
43819;SDS011;67762;52.476;6.046;2023-04-03T11:55:44;16.33;;;15.43;;
43819;SDS011;67762;52.476;6.046;2023-04-03T11:58:16;16.05;;;15.05;;
43819;SDS011;67762;52.476;6.046;2023-04-03T12:08:45;14.10;;;13.20;;
43819;SDS011;67762;52.476;6.046;2023-04-03T12:11:31;14.73;;;13.82;;
43819;SDS011;67762;52.476;6.046;2023-04-03T12:16:30;16.40;;;15.32;;
43819;SDS011;67762;52.476;6.046;2023-04-03T12:24:29;15.52;;;14.63;;
43819;SDS011;67762;52.476;6.046;2023-04-03T12:30:16;15.02;;;14.13;;
43819;SDS011;67762;52.476;6.046;2023-04-03T12:48:54;14.57;;;13.68;;
43819;SDS011;67762;52.476;6.046;2023-04-03T12:54:16;15.95;;;14.95;;
43819;SDS011;67762;52.476;6.046;2023-04-03T12:56:45;16.38;;;15.40;;
43819;SDS011;67762;52.476;6.046;2023-04-03T12:59:15;17.10;;;15.98;;
43819;SDS011;67762;52.476;6.046;2023-04-03T13:01:44;16.30;;;15.30;;
43819;SDS011;67762;52.476;6.046;2023-04-03T13:04:19;18.10;;;16.83;;
43819;SDS011;67762;52.476;6.046;2023-04-03T13:06:44;15.75;;;14.75;;
43819;SDS011;67762;52.476;6.046;2023-04-03T13:09:24;16.65;;;15.60;;
43819;SDS011;67762;52.476;6.046;2023-04-03T13:11:55;17.98;;;16.63;;
43819;SDS011;67762;52.476;6.046;2023-04-03T13:14:25;15.98;;;15.00;;
43819;SDS011;67762;52.476;6.046;2023-04-03T13:16:57;16.90;;;15.80;;
43819;SDS011;67762;52.476;6.046;2023-04-03T13:19:27;17.23;;;16.20;;
43819;SDS011;67762;52.476;6.046;2023-04-03T13:21:57;15.50;;;14.57;;
43819;SDS011;67762;52.476;6.046;2023-04-03T13:24:26;17.45;;;16.35;;
43819;SDS011;67762;52.476;6.046;2023-04-03T13:26:55;16.73;;;15.45;;
43819;SDS011;67762;52.476;6.046;2023-04-03T13:29:26;14.95;;;13.85;;
43819;SDS011;67762;52.476;6.046;2023-04-03T13:31:54;15.77;;;14.82;;
43819;SDS011;67762;52.476;6.046;2023-04-03T13:34:22;15.50;;;14.35;;
43819;SDS011;67762;52.476;6.046;2023-04-03T13:41:45;17.40;;;16.00;;
43819;SDS011;67762;52.476;6.046;2023-04-03T13:49:18;16.27;;;15.10;;
43819;SDS011;67762;52.476;6.046;2023-04-03T13:51:52;16.48;;;15.48;;
43819;SDS011;67762;52.476;6.046;2023-04-03T13:54:20;17.02;;;15.63;;
43819;SDS011;67762;52.476;6.046;2023-04-03T13:56:55;14.85;;;13.95;;
43819;SDS011;67762;52.476;6.046;2023-04-03T14:02:09;17.48;;;16.35;;
43819;SDS011;67762;52.476;6.046;2023-04-03T14:07:05;17.00;;;15.90;;
43819;SDS011;67762;52.476;6.046;2023-04-03T14:09:31;16.90;;;15.93;;
43819;SDS011;67762;52.476;6.046;2023-04-03T14:12:02;17.25;;;16.23;;
43819;SDS011;67762;52.476;6.046;2023-04-03T14:14:48;18.27;;;16.95;;
43819;SDS011;67762;52.476;6.046;2023-04-03T14:17:15;17.58;;;16.65;;
43819;SDS011;67762;52.476;6.046;2023-04-03T14:19:44;16.23;;;15.13;;
43819;SDS011;67762;52.476;6.046;2023-04-03T14:22:12;15.43;;;14.45;;
43819;SDS011;67762;52.476;6.046;2023-04-03T14:24:57;17.13;;;15.93;;
43819;SDS011;67762;52.476;6.046;2023-04-03T14:27:28;17.88;;;16.65;;
43819;SDS011;67762;52.476;6.046;2023-04-03T14:29:58;15.35;;;14.38;;
43819;SDS011;67762;52.476;6.046;2023-04-03T14:32:25;16.50;;;15.52;;
43819;SDS011;67762;52.476;6.046;2023-04-03T14:34:51;15.85;;;14.88;;
43819;SDS011;67762;52.476;6.046;2023-04-03T14:37:19;16.27;;;15.18;;
43819;SDS011;67762;52.476;6.046;2023-04-03T14:39:48;17.75;;;16.67;;
43819;SDS011;67762;52.476;6.046;2023-04-03T14:42:16;16.33;;;15.40;;
43819;SDS011;67762;52.476;6.046;2023-04-03T14:44:44;14.98;;;13.93;;
43819;SDS011;67762;52.476;6.046;2023-04-03T14:47:13;17.42;;;16.40;;
43819;SDS011;67762;52.476;6.046;2023-04-03T14:49:42;15.55;;;14.55;;
43819;SDS011;67762;52.476;6.046;2023-04-03T14:52:16;19.00;;;17.83;;
43819;SDS011;67762;52.476;6.046;2023-04-03T14:54:45;16.65;;;15.57;;
43819;SDS011;67762;52.476;6.046;2023-04-03T14:57:11;15.15;;;14.25;;
43819;SDS011;67762;52.476;6.046;2023-04-03T14:59:39;15.18;;;14.18;;
43819;SDS011;67762;52.476;6.046;2023-04-03T15:04:51;16.35;;;15.38;;
43819;SDS011;67762;52.476;6.046;2023-04-03T15:07:17;16.65;;;15.43;;
43819;SDS011;67762;52.476;6.046;2023-04-03T15:09:43;16.02;;;14.82;;
43819;SDS011;67762;52.476;6.046;2023-04-03T15:12:09;16.67;;;15.68;;
43819;SDS011;67762;52.476;6.046;2023-04-03T15:14:35;15.27;;;14.38;;
43819;SDS011;67762;52.476;6.046;2023-04-03T15:17:01;16.80;;;15.73;;
43819;SDS011;67762;52.476;6.046;2023-04-03T15:19:28;17.10;;;16.10;;
43819;SDS011;67762;52.476;6.046;2023-04-03T15:21:53;17.27;;;16.25;;
43819;SDS011;67762;52.476;6.046;2023-04-03T15:24:19;16.38;;;15.32;;
43819;SDS011;67762;52.476;6.046;2023-04-03T15:26:45;16.98;;;15.90;;
43819;SDS011;67762;52.476;6.046;2023-04-03T15:29:11;16.58;;;15.52;;
43819;SDS011;67762;52.476;6.046;2023-04-03T15:31:37;17.00;;;16.00;;
43819;SDS011;67762;52.476;6.046;2023-04-03T15:34:03;16.30;;;15.07;;
43819;SDS011;67762;52.476;6.046;2023-04-03T15:36:28;16.25;;;15.25;;
43819;SDS011;67762;52.476;6.046;2023-04-03T15:38:54;16.38;;;15.27;;
43819;SDS011;67762;52.476;6.046;2023-04-03T15:41:19;17.48;;;16.38;;
43819;SDS011;67762;52.476;6.046;2023-04-03T15:43:46;18.48;;;16.98;;
43819;SDS011;67762;52.476;6.046;2023-04-03T15:46:11;16.67;;;15.35;;
43819;SDS011;67762;52.476;6.046;2023-04-03T15:48:38;17.02;;;15.63;;
43819;SDS011;67762;52.476;6.046;2023-04-03T15:51:05;17.00;;;15.60;;
43819;SDS011;67762;52.476;6.046;2023-04-03T15:53:31;17.00;;;16.00;;
43819;SDS011;67762;52.476;6.046;2023-04-03T15:55:56;15.80;;;14.88;;
43819;SDS011;67762;52.476;6.046;2023-04-03T15:58:22;16.73;;;15.63;;
43819;SDS011;67762;52.476;6.046;2023-04-03T16:00:48;17.60;;;16.27;;